sensor_id;sensor_type;location;lat;lon;timestamp;P1;durP1;ratioP1;P2;durP2;ratioP2
25213;SDS011;13160;51.834;4.706;2023-01-20T00:01:51;41.28;;;21.98;;
25213;SDS011;13160;51.834;4.706;2023-01-20T00:04:20;43.70;;;22.55;;
25213;SDS011;13160;51.834;4.706;2023-01-20T00:06:49;39.67;;;20.85;;
25213;SDS011;13160;51.834;4.706;2023-01-20T00:09:19;40.33;;;22.50;;
25213;SDS011;13160;51.834;4.706;2023-01-20T00:11:48;37.38;;;21.88;;
25213;SDS011;13160;51.834;4.706;2023-01-20T00:14:16;40.42;;;20.05;;
25213;SDS011;13160;51.834;4.706;2023-01-20T00:16:46;43.28;;;21.45;;
25213;SDS011;13160;51.834;4.706;2023-01-20T00:19:16;35.80;;;18.80;;
25213;SDS011;13160;51.834;4.706;2023-01-20T00:21:48;40.17;;;20.10;;
25213;SDS011;13160;51.834;4.706;2023-01-20T00:24:18;39.13;;;20.10;;
25213;SDS011;13160;51.834;4.706;2023-01-20T00:26:47;36.70;;;18.67;;
25213;SDS011;13160;51.834;4.706;2023-01-20T00:29:16;37.55;;;19.05;;
25213;SDS011;13160;51.834;4.706;2023-01-20T00:31:45;36.75;;;18.05;;
25213;SDS011;13160;51.834;4.706;2023-01-20T00:34:14;32.78;;;16.92;;
25213;SDS011;13160;51.834;4.706;2023-01-20T00:36:43;36.45;;;18.17;;
25213;SDS011;13160;51.834;4.706;2023-01-20T00:39:11;33.72;;;17.00;;
25213;SDS011;13160;51.834;4.706;2023-01-20T00:41:42;36.17;;;17.05;;
25213;SDS011;13160;51.834;4.706;2023-01-20T00:44:10;36.45;;;17.75;;
25213;SDS011;13160;51.834;4.706;2023-01-20T00:46:40;42.08;;;19.52;;
25213;SDS011;13160;51.834;4.706;2023-01-20T00:49:08;36.40;;;19.25;;
25213;SDS011;13160;51.834;4.706;2023-01-20T00:51:40;37.55;;;19.35;;
25213;SDS011;13160;51.834;4.706;2023-01-20T00:54:09;40.30;;;18.27;;
25213;SDS011;13160;51.834;4.706;2023-01-20T00:56:38;41.28;;;17.90;;
25213;SDS011;13160;51.834;4.706;2023-01-20T00:59:08;37.80;;;18.27;;
25213;SDS011;13160;51.834;4.706;2023-01-20T01:01:37;32.13;;;17.27;;
25213;SDS011;13160;51.834;4.706;2023-01-20T01:04:06;38.08;;;18.40;;
25213;SDS011;13160;51.834;4.706;2023-01-20T01:06:37;33.58;;;16.77;;
25213;SDS011;13160;51.834;4.706;2023-01-20T01:09:09;39.72;;;17.65;;
25213;SDS011;13160;51.834;4.706;2023-01-20T01:11:40;36.78;;;18.05;;
25213;SDS011;13160;51.834;4.706;2023-01-20T01:14:10;31.05;;;16.20;;
25213;SDS011;13160;51.834;4.706;2023-01-20T01:16:39;33.88;;;17.42;;
25213;SDS011;13160;51.834;4.706;2023-01-20T01:19:11;35.17;;;17.08;;
25213;SDS011;13160;51.834;4.706;2023-01-20T01:21:41;38.58;;;18.85;;
25213;SDS011;13160;51.834;4.706;2023-01-20T01:24:09;39.17;;;18.05;;
25213;SDS011;13160;51.834;4.706;2023-01-20T01:26:38;30.13;;;16.08;;
25213;SDS011;13160;51.834;4.706;2023-01-20T01:29:12;30.13;;;15.55;;
25213;SDS011;13160;51.834;4.706;2023-01-20T01:31:44;31.00;;;17.05;;
25213;SDS011;13160;51.834;4.706;2023-01-20T01:34:13;29.95;;;15.07;;
25213;SDS011;13160;51.834;4.706;2023-01-20T01:36:42;37.97;;;15.90;;
25213;SDS011;13160;51.834;4.706;2023-01-20T01:39:10;33.45;;;16.10;;
25213;SDS011;13160;51.834;4.706;2023-01-20T01:41:39;31.92;;;16.83;;
25213;SDS011;13160;51.834;4.706;2023-01-20T01:44:09;30.70;;;16.25;;
25213;SDS011;13160;51.834;4.706;2023-01-20T01:46:40;31.80;;;16.05;;
25213;SDS011;13160;51.834;4.706;2023-01-20T01:49:14;35.78;;;16.90;;
25213;SDS011;13160;51.834;4.706;2023-01-20T01:51:48;36.70;;;17.73;;
25213;SDS011;13160;51.834;4.706;2023-01-20T01:54:22;35.72;;;18.10;;
25213;SDS011;13160;51.834;4.706;2023-01-20T02:18:11;44.47;;;22.10;;
25213;SDS011;13160;51.834;4.706;2023-01-20T02:24:06;51.15;;;23.65;;
25213;SDS011;13160;51.834;4.706;2023-01-20T02:27:18;53.08;;;24.48;;
25213;SDS011;13160;51.834;4.706;2023-01-20T02:30:15;57.13;;;25.35;;
25213;SDS011;13160;51.834;4.706;2023-01-20T02:33:06;54.17;;;26.67;;
25213;SDS011;13160;51.834;4.706;2023-01-20T02:35:40;55.50;;;26.35;;
25213;SDS011;13160;51.834;4.706;2023-01-20T02:38:15;53.38;;;25.75;;
25213;SDS011;13160;51.834;4.706;2023-01-20T02:40:54;51.20;;;25.60;;
25213;SDS011;13160;51.834;4.706;2023-01-20T02:43:31;58.80;;;26.42;;
25213;SDS011;13160;51.834;4.706;2023-01-20T02:46:07;55.63;;;27.85;;
25213;SDS011;13160;51.834;4.706;2023-01-20T02:48:43;58.63;;;27.40;;
25213;SDS011;13160;51.834;4.706;2023-01-20T02:51:16;63.03;;;30.45;;
25213;SDS011;13160;51.834;4.706;2023-01-20T02:53:50;63.55;;;28.30;;
25213;SDS011;13160;51.834;4.706;2023-01-20T02:56:22;62.50;;;30.05;;
25213;SDS011;13160;51.834;4.706;2023-01-20T02:58:56;62.13;;;28.77;;
25213;SDS011;13160;51.834;4.706;2023-01-20T03:01:29;65.47;;;28.50;;
25213;SDS011;13160;51.834;4.706;2023-01-20T03:04:02;62.00;;;29.73;;
25213;SDS011;13160;51.834;4.706;2023-01-20T03:06:35;62.55;;;29.45;;
25213;SDS011;13160;51.834;4.706;2023-01-20T03:09:11;64.38;;;29.20;;
25213;SDS011;13160;51.834;4.706;2023-01-20T03:11:45;68.93;;;31.20;;
25213;SDS011;13160;51.834;4.706;2023-01-20T03:14:18;70.15;;;30.05;;
25213;SDS011;13160;51.834;4.706;2023-01-20T03:34:45;65.32;;;27.15;;
25213;SDS011;13160;51.834;4.706;2023-01-20T03:37:14;66.25;;;28.10;;
25213;SDS011;13160;51.834;4.706;2023-01-20T03:39:43;64.10;;;29.25;;
25213;SDS011;13160;51.834;4.706;2023-01-20T03:42:16;63.90;;;30.83;;
25213;SDS011;13160;51.834;4.706;2023-01-20T03:45:04;75.70;;;31.15;;
25213;SDS011;13160;51.834;4.706;2023-01-20T03:47:45;66.32;;;29.90;;
25213;SDS011;13160;51.834;4.706;2023-01-20T03:50:28;79.55;;;31.88;;
25213;SDS011;13160;51.834;4.706;2023-01-20T03:53:05;73.90;;;31.67;;
25213;SDS011;13160;51.834;4.706;2023-01-20T03:55:45;71.85;;;30.67;;
25213;SDS011;13160;51.834;4.706;2023-01-20T03:58:19;81.78;;;32.70;;
25213;SDS011;13160;51.834;4.706;2023-01-20T04:00:53;78.55;;;33.53;;
25213;SDS011;13160;51.834;4.706;2023-01-20T04:03:25;82.72;;;33.83;;
25213;SDS011;13160;51.834;4.706;2023-01-20T04:05:59;84.72;;;35.35;;
25213;SDS011;13160;51.834;4.706;2023-01-20T04:08:32;84.43;;;33.85;;
25213;SDS011;13160;51.834;4.706;2023-01-20T04:11:04;85.47;;;33.65;;
25213;SDS011;13160;51.834;4.706;2023-01-20T04:13:35;84.55;;;34.72;;
25213;SDS011;13160;51.834;4.706;2023-01-20T04:16:07;86.28;;;34.45;;
25213;SDS011;13160;51.834;4.706;2023-01-20T04:26:46;92.68;;;37.83;;
25213;SDS011;13160;51.834;4.706;2023-01-20T04:29:18;98.15;;;38.03;;
25213;SDS011;13160;51.834;4.706;2023-01-20T04:31:47;94.68;;;38.70;;
25213;SDS011;13160;51.834;4.706;2023-01-20T04:34:16;109.15;;;40.67;;
25213;SDS011;13160;51.834;4.706;2023-01-20T04:36:45;103.38;;;39.67;;
25213;SDS011;13160;51.834;4.706;2023-01-20T04:39:14;103.53;;;40.28;;
25213;SDS011;13160;51.834;4.706;2023-01-20T04:41:44;101.93;;;40.88;;
25213;SDS011;13160;51.834;4.706;2023-01-20T04:44:17;101.13;;;39.47;;
25213;SDS011;13160;51.834;4.706;2023-01-20T04:46:46;98.20;;;39.35;;
25213;SDS011;13160;51.834;4.706;2023-01-20T04:49:15;92.95;;;40.10;;
25213;SDS011;13160;51.834;4.706;2023-01-20T04:51:44;103.78;;;41.05;;
25213;SDS011;13160;51.834;4.706;2023-01-20T04:54:14;95.68;;;39.22;;
25213;SDS011;13160;51.834;4.706;2023-01-20T04:56:42;107.93;;;39.33;;
25213;SDS011;13160;51.834;4.706;2023-01-20T04:59:13;98.03;;;39.55;;
25213;SDS011;13160;51.834;4.706;2023-01-20T05:01:42;94.32;;;38.47;;
25213;SDS011;13160;51.834;4.706;2023-01-20T05:04:11;106.43;;;40.40;;
25213;SDS011;13160;51.834;4.706;2023-01-20T05:06:40;102.38;;;38.92;;
25213;SDS011;13160;51.834;4.706;2023-01-20T05:34:13;88.25;;;35.53;;
25213;SDS011;13160;51.834;4.706;2023-01-20T05:36:42;85.15;;;34.85;;
25213;SDS011;13160;51.834;4.706;2023-01-20T05:39:11;79.75;;;34.58;;
25213;SDS011;13160;51.834;4.706;2023-01-20T05:41:40;78.30;;;34.33;;
25213;SDS011;13160;51.834;4.706;2023-01-20T05:44:12;79.47;;;34.10;;
25213;SDS011;13160;51.834;4.706;2023-01-20T05:46:41;90.35;;;35.75;;
25213;SDS011;13160;51.834;4.706;2023-01-20T05:49:12;77.78;;;33.53;;
25213;SDS011;13160;51.834;4.706;2023-01-20T05:51:41;83.47;;;34.50;;
25213;SDS011;13160;51.834;4.706;2023-01-20T05:54:10;89.95;;;34.90;;
25213;SDS011;13160;51.834;4.706;2023-01-20T06:07:28;88.82;;;33.55;;
25213;SDS011;13160;51.834;4.706;2023-01-20T06:09:58;80.55;;;31.90;;
25213;SDS011;13160;51.834;4.706;2023-01-20T06:12:31;74.38;;;32.05;;
25213;SDS011;13160;51.834;4.706;2023-01-20T06:15:00;67.93;;;31.60;;
25213;SDS011;13160;51.834;4.706;2023-01-20T06:17:29;73.13;;;31.63;;
25213;SDS011;13160;51.834;4.706;2023-01-20T06:19:58;67.28;;;29.98;;
25213;SDS011;13160;51.834;4.706;2023-01-20T06:22:29;72.72;;;31.58;;
25213;SDS011;13160;51.834;4.706;2023-01-20T06:24:58;72.43;;;30.75;;
25213;SDS011;13160;51.834;4.706;2023-01-20T06:27:27;71.40;;;30.98;;
25213;SDS011;13160;51.834;4.706;2023-01-20T06:29:56;71.97;;;31.95;;
25213;SDS011;13160;51.834;4.706;2023-01-20T06:32:26;74.28;;;29.65;;
25213;SDS011;13160;51.834;4.706;2023-01-20T06:34:55;68.35;;;30.05;;
25213;SDS011;13160;51.834;4.706;2023-01-20T06:37:23;71.65;;;29.85;;
25213;SDS011;13160;51.834;4.706;2023-01-20T06:39:53;69.95;;;30.13;;
25213;SDS011;13160;51.834;4.706;2023-01-20T06:42:25;66.55;;;29.45;;
25213;SDS011;13160;51.834;4.706;2023-01-20T06:44:57;69.32;;;29.92;;
25213;SDS011;13160;51.834;4.706;2023-01-20T06:47:26;65.82;;;28.92;;
25213;SDS011;13160;51.834;4.706;2023-01-20T06:50:00;63.63;;;27.80;;
25213;SDS011;13160;51.834;4.706;2023-01-20T07:00:30;51.60;;;25.70;;
25213;SDS011;13160;51.834;4.706;2023-01-20T07:03:02;55.53;;;27.05;;
25213;SDS011;13160;51.834;4.706;2023-01-20T07:05:31;55.10;;;26.50;;
25213;SDS011;13160;51.834;4.706;2023-01-20T07:08:16;47.72;;;26.40;;
25213;SDS011;13160;51.834;4.706;2023-01-20T07:10:45;51.10;;;26.35;;
25213;SDS011;13160;51.834;4.706;2023-01-20T07:13:13;45.83;;;25.00;;
25213;SDS011;13160;51.834;4.706;2023-01-20T07:15:44;47.40;;;25.98;;
25213;SDS011;13160;51.834;4.706;2023-01-20T07:18:13;49.75;;;24.85;;
25213;SDS011;13160;51.834;4.706;2023-01-20T07:20:42;46.55;;;26.25;;
25213;SDS011;13160;51.834;4.706;2023-01-20T07:23:10;49.15;;;26.60;;
25213;SDS011;13160;51.834;4.706;2023-01-20T07:25:41;51.13;;;26.92;;
25213;SDS011;13160;51.834;4.706;2023-01-20T07:28:10;54.58;;;28.42;;
25213;SDS011;13160;51.834;4.706;2023-01-20T07:30:39;57.25;;;29.52;;
25213;SDS011;13160;51.834;4.706;2023-01-20T07:33:10;49.22;;;27.85;;
25213;SDS011;13160;51.834;4.706;2023-01-20T07:35:42;56.17;;;30.45;;
25213;SDS011;13160;51.834;4.706;2023-01-20T07:38:11;56.72;;;31.58;;
25213;SDS011;13160;51.834;4.706;2023-01-20T07:40:40;64.53;;;30.85;;
25213;SDS011;13160;51.834;4.706;2023-01-20T07:43:09;62.03;;;31.25;;
25213;SDS011;13160;51.834;4.706;2023-01-20T07:45:38;62.60;;;33.25;;
25213;SDS011;13160;51.834;4.706;2023-01-20T07:48:07;60.10;;;31.63;;
25213;SDS011;13160;51.834;4.706;2023-01-20T07:50:38;68.95;;;34.70;;
25213;SDS011;13160;51.834;4.706;2023-01-20T07:53:07;60.92;;;33.17;;
25213;SDS011;13160;51.834;4.706;2023-01-20T07:55:36;66.13;;;35.83;;
25213;SDS011;13160;51.834;4.706;2023-01-20T07:58:06;61.08;;;33.83;;
25213;SDS011;13160;51.834;4.706;2023-01-20T08:00:35;62.17;;;31.38;;
25213;SDS011;13160;51.834;4.706;2023-01-20T08:03:05;59.35;;;31.38;;
25213;SDS011;13160;51.834;4.706;2023-01-20T08:05:38;60.00;;;32.55;;
25213;SDS011;13160;51.834;4.706;2023-01-20T08:08:07;57.90;;;31.30;;
25213;SDS011;13160;51.834;4.706;2023-01-20T08:10:35;66.22;;;32.58;;
25213;SDS011;13160;51.834;4.706;2023-01-20T08:13:04;53.45;;;29.70;;
25213;SDS011;13160;51.834;4.706;2023-01-20T08:15:32;61.63;;;30.30;;
25213;SDS011;13160;51.834;4.706;2023-01-20T08:18:01;56.60;;;30.45;;
25213;SDS011;13160;51.834;4.706;2023-01-20T08:20:29;59.45;;;31.33;;
25213;SDS011;13160;51.834;4.706;2023-01-20T08:22:59;59.65;;;31.38;;
25213;SDS011;13160;51.834;4.706;2023-01-20T08:25:27;59.00;;;30.38;;
25213;SDS011;13160;51.834;4.706;2023-01-20T08:27:55;60.38;;;30.67;;
25213;SDS011;13160;51.834;4.706;2023-01-20T08:30:24;58.80;;;29.75;;
25213;SDS011;13160;51.834;4.706;2023-01-20T08:32:52;54.33;;;28.75;;
25213;SDS011;13160;51.834;4.706;2023-01-20T08:35:24;51.35;;;28.17;;
25213;SDS011;13160;51.834;4.706;2023-01-20T08:37:53;48.45;;;25.20;;
25213;SDS011;13160;51.834;4.706;2023-01-20T08:40:25;57.97;;;27.75;;
25213;SDS011;13160;51.834;4.706;2023-01-20T08:42:54;48.25;;;26.65;;
25213;SDS011;13160;51.834;4.706;2023-01-20T08:45:30;52.13;;;27.52;;
25213;SDS011;13160;51.834;4.706;2023-01-20T08:47:59;41.75;;;23.67;;
25213;SDS011;13160;51.834;4.706;2023-01-20T08:50:28;47.33;;;24.20;;
25213;SDS011;13160;51.834;4.706;2023-01-20T08:52:57;46.05;;;23.95;;
25213;SDS011;13160;51.834;4.706;2023-01-20T08:55:29;39.42;;;21.52;;
25213;SDS011;13160;51.834;4.706;2023-01-20T08:57:58;47.38;;;24.60;;
25213;SDS011;13160;51.834;4.706;2023-01-20T09:00:28;39.20;;;21.98;;
25213;SDS011;13160;51.834;4.706;2023-01-20T09:03:01;42.65;;;22.05;;
25213;SDS011;13160;51.834;4.706;2023-01-20T09:05:30;44.78;;;24.60;;
25213;SDS011;13160;51.834;4.706;2023-01-20T09:08:03;44.60;;;23.48;;
25213;SDS011;13160;51.834;4.706;2023-01-20T09:10:37;42.53;;;23.50;;
25213;SDS011;13160;51.834;4.706;2023-01-20T09:13:09;43.30;;;23.75;;
25213;SDS011;13160;51.834;4.706;2023-01-20T09:15:38;41.75;;;22.48;;
25213;SDS011;13160;51.834;4.706;2023-01-20T09:18:07;48.30;;;24.25;;
25213;SDS011;13160;51.834;4.706;2023-01-20T09:20:38;45.17;;;25.00;;
25213;SDS011;13160;51.834;4.706;2023-01-20T09:23:07;62.35;;;37.40;;
25213;SDS011;13160;51.834;4.706;2023-01-20T09:25:36;67.90;;;38.42;;
25213;SDS011;13160;51.834;4.706;2023-01-20T09:28:08;52.65;;;29.05;;
25213;SDS011;13160;51.834;4.706;2023-01-20T09:30:39;41.55;;;23.52;;
25213;SDS011;13160;51.834;4.706;2023-01-20T09:33:09;42.28;;;23.75;;
25213;SDS011;13160;51.834;4.706;2023-01-20T09:35:39;40.65;;;21.63;;
25213;SDS011;13160;51.834;4.706;2023-01-20T09:38:11;41.03;;;23.67;;
25213;SDS011;13160;51.834;4.706;2023-01-20T09:41:02;43.90;;;23.42;;
25213;SDS011;13160;51.834;4.706;2023-01-20T09:44:02;44.83;;;23.02;;
25213;SDS011;13160;51.834;4.706;2023-01-20T09:46:53;45.30;;;24.95;;
25213;SDS011;13160;51.834;4.706;2023-01-20T09:53:04;56.42;;;28.73;;
25213;SDS011;13160;51.834;4.706;2023-01-20T09:55:42;56.47;;;27.98;;
25213;SDS011;13160;51.834;4.706;2023-01-20T09:58:20;47.72;;;23.80;;
25213;SDS011;13160;51.834;4.706;2023-01-20T10:00:59;40.40;;;21.63;;
25213;SDS011;13160;51.834;4.706;2023-01-20T10:03:39;36.25;;;20.73;;
25213;SDS011;13160;51.834;4.706;2023-01-20T10:06:16;38.22;;;20.85;;
25213;SDS011;13160;51.834;4.706;2023-01-20T10:08:52;38.63;;;20.45;;
25213;SDS011;13160;51.834;4.706;2023-01-20T10:11:32;38.08;;;21.88;;
25213;SDS011;13160;51.834;4.706;2023-01-20T10:14:08;35.10;;;19.60;;
25213;SDS011;13160;51.834;4.706;2023-01-20T10:16:47;38.83;;;21.33;;
25213;SDS011;13160;51.834;4.706;2023-01-20T10:19:22;39.72;;;21.45;;
25213;SDS011;13160;51.834;4.706;2023-01-20T10:22:02;41.08;;;21.55;;
25213;SDS011;13160;51.834;4.706;2023-01-20T10:24:39;36.83;;;22.20;;
25213;SDS011;13160;51.834;4.706;2023-01-20T10:27:21;37.92;;;22.73;;
25213;SDS011;13160;51.834;4.706;2023-01-20T10:29:55;41.10;;;23.00;;
25213;SDS011;13160;51.834;4.706;2023-01-20T10:32:32;43.15;;;22.23;;
25213;SDS011;13160;51.834;4.706;2023-01-20T10:35:06;38.63;;;21.38;;
25213;SDS011;13160;51.834;4.706;2023-01-20T10:37:41;37.28;;;21.88;;
25213;SDS011;13160;51.834;4.706;2023-01-20T10:40:17;39.80;;;23.42;;
25213;SDS011;13160;51.834;4.706;2023-01-20T10:43:03;40.70;;;23.92;;
25213;SDS011;13160;51.834;4.706;2023-01-20T10:45:44;34.03;;;21.48;;
25213;SDS011;13160;51.834;4.706;2023-01-20T10:48:35;39.05;;;21.98;;
25213;SDS011;13160;51.834;4.706;2023-01-20T10:51:25;44.63;;;24.88;;
25213;SDS011;13160;51.834;4.706;2023-01-20T10:54:04;44.55;;;23.17;;
25213;SDS011;13160;51.834;4.706;2023-01-20T10:56:50;48.35;;;24.13;;
25213;SDS011;13160;51.834;4.706;2023-01-20T10:59:24;50.08;;;27.08;;
25213;SDS011;13160;51.834;4.706;2023-01-20T11:01:59;51.42;;;25.63;;
25213;SDS011;13160;51.834;4.706;2023-01-20T11:04:38;50.78;;;25.50;;
25213;SDS011;13160;51.834;4.706;2023-01-20T11:07:10;42.88;;;24.85;;
25213;SDS011;13160;51.834;4.706;2023-01-20T11:09:42;48.13;;;24.20;;
25213;SDS011;13160;51.834;4.706;2023-01-20T11:12:15;45.80;;;24.40;;
25213;SDS011;13160;51.834;4.706;2023-01-20T11:14:48;38.80;;;21.55;;
25213;SDS011;13160;51.834;4.706;2023-01-20T11:17:18;40.80;;;21.50;;
25213;SDS011;13160;51.834;4.706;2023-01-20T11:19:49;43.10;;;22.33;;
25213;SDS011;13160;51.834;4.706;2023-01-20T11:22:23;39.70;;;21.48;;
25213;SDS011;13160;51.834;4.706;2023-01-20T11:24:56;36.85;;;21.05;;
25213;SDS011;13160;51.834;4.706;2023-01-20T11:27:27;38.00;;;21.20;;
25213;SDS011;13160;51.834;4.706;2023-01-20T11:30:04;37.03;;;20.58;;
25213;SDS011;13160;51.834;4.706;2023-01-20T11:32:49;39.90;;;19.42;;
25213;SDS011;13160;51.834;4.706;2023-01-20T11:35:38;39.33;;;20.48;;
25213;SDS011;13160;51.834;4.706;2023-01-20T11:38:22;41.00;;;20.95;;
25213;SDS011;13160;51.834;4.706;2023-01-20T11:40:52;37.95;;;19.92;;
25213;SDS011;13160;51.834;4.706;2023-01-20T11:43:29;43.90;;;21.40;;
25213;SDS011;13160;51.834;4.706;2023-01-20T11:46:09;33.10;;;19.92;;
25213;SDS011;13160;51.834;4.706;2023-01-20T11:48:49;32.22;;;17.85;;
25213;SDS011;13160;51.834;4.706;2023-01-20T11:51:42;32.33;;;17.90;;
25213;SDS011;13160;51.834;4.706;2023-01-20T11:54:17;29.90;;;17.42;;
25213;SDS011;13160;51.834;4.706;2023-01-20T11:56:50;36.05;;;19.73;;
25213;SDS011;13160;51.834;4.706;2023-01-20T11:59:25;28.48;;;16.38;;
25213;SDS011;13160;51.834;4.706;2023-01-20T12:01:56;27.70;;;15.95;;
25213;SDS011;13160;51.834;4.706;2023-01-20T12:07:25;22.63;;;14.27;;
25213;SDS011;13160;51.834;4.706;2023-01-20T12:09:59;24.80;;;14.02;;
25213;SDS011;13160;51.834;4.706;2023-01-20T12:12:35;28.33;;;14.18;;
25213;SDS011;13160;51.834;4.706;2023-01-20T12:15:10;25.33;;;12.93;;
25213;SDS011;13160;51.834;4.706;2023-01-20T12:17:50;17.13;;;9.50;;
25213;SDS011;13160;51.834;4.706;2023-01-20T12:20:29;20.65;;;11.57;;
25213;SDS011;13160;51.834;4.706;2023-01-20T12:23:21;19.02;;;10.65;;
25213;SDS011;13160;51.834;4.706;2023-01-20T12:26:00;17.55;;;9.00;;
25213;SDS011;13160;51.834;4.706;2023-01-20T12:28:33;17.40;;;8.25;;
25213;SDS011;13160;51.834;4.706;2023-01-20T12:31:07;14.57;;;7.03;;
25213;SDS011;13160;51.834;4.706;2023-01-20T12:33:38;14.57;;;6.30;;
25213;SDS011;13160;51.834;4.706;2023-01-20T12:36:16;13.68;;;5.97;;
25213;SDS011;13160;51.834;4.706;2023-01-20T12:39:26;14.43;;;6.28;;
25213;SDS011;13160;51.834;4.706;2023-01-20T12:42:18;13.75;;;7.10;;
25213;SDS011;13160;51.834;4.706;2023-01-20T12:45:08;14.02;;;6.57;;
25213;SDS011;13160;51.834;4.706;2023-01-20T12:47:53;16.08;;;6.07;;
25213;SDS011;13160;51.834;4.706;2023-01-20T12:50:35;13.10;;;5.80;;
25213;SDS011;13160;51.834;4.706;2023-01-20T12:53:25;13.20;;;6.18;;
25213;SDS011;13160;51.834;4.706;2023-01-20T12:56:09;9.90;;;5.68;;
25213;SDS011;13160;51.834;4.706;2023-01-20T12:58:52;16.02;;;5.55;;
25213;SDS011;13160;51.834;4.706;2023-01-20T13:01:45;13.05;;;5.28;;
25213;SDS011;13160;51.834;4.706;2023-01-20T13:07:51;9.35;;;4.40;;
25213;SDS011;13160;51.834;4.706;2023-01-20T13:10:45;8.95;;;5.00;;
25213;SDS011;13160;51.834;4.706;2023-01-20T13:13:34;10.50;;;4.47;;
25213;SDS011;13160;51.834;4.706;2023-01-20T13:16:23;10.07;;;5.28;;
25213;SDS011;13160;51.834;4.706;2023-01-20T13:19:05;8.63;;;4.85;;
25213;SDS011;13160;51.834;4.706;2023-01-20T13:21:42;9.88;;;5.30;;
25213;SDS011;13160;51.834;4.706;2023-01-20T13:24:24;11.20;;;5.60;;
25213;SDS011;13160;51.834;4.706;2023-01-20T13:26:56;12.52;;;5.93;;
25213;SDS011;13160;51.834;4.706;2023-01-20T13:29:39;9.77;;;4.80;;
25213;SDS011;13160;51.834;4.706;2023-01-20T13:34:59;12.05;;;6.13;;
25213;SDS011;13160;51.834;4.706;2023-01-20T13:37:56;10.27;;;5.53;;
25213;SDS011;13160;51.834;4.706;2023-01-20T13:40:46;11.40;;;6.20;;
25213;SDS011;13160;51.834;4.706;2023-01-20T13:43:34;12.25;;;6.90;;
25213;SDS011;13160;51.834;4.706;2023-01-20T13:49:24;15.25;;;8.18;;
25213;SDS011;13160;51.834;4.706;2023-01-20T13:52:11;15.77;;;9.82;;
25213;SDS011;13160;51.834;4.706;2023-01-20T13:54:44;16.05;;;9.55;;
25213;SDS011;13160;51.834;4.706;2023-01-20T14:09:10;22.65;;;13.02;;
25213;SDS011;13160;51.834;4.706;2023-01-20T14:11:51;20.33;;;12.77;;
25213;SDS011;13160;51.834;4.706;2023-01-20T14:14:22;18.02;;;11.70;;
25213;SDS011;13160;51.834;4.706;2023-01-20T14:16:53;20.73;;;12.15;;
25213;SDS011;13160;51.834;4.706;2023-01-20T14:19:28;19.58;;;11.95;;
25213;SDS011;13160;51.834;4.706;2023-01-20T14:25:42;19.65;;;11.02;;
25213;SDS011;13160;51.834;4.706;2023-01-20T14:28:25;17.50;;;10.38;;
25213;SDS011;13160;51.834;4.706;2023-01-20T14:33:52;16.17;;;9.80;;
25213;SDS011;13160;51.834;4.706;2023-01-20T14:36:28;17.33;;;10.40;;
25213;SDS011;13160;51.834;4.706;2023-01-20T14:39:00;17.55;;;10.85;;
25213;SDS011;13160;51.834;4.706;2023-01-20T14:41:43;17.05;;;9.93;;
25213;SDS011;13160;51.834;4.706;2023-01-20T14:44:17;17.10;;;10.10;;
25213;SDS011;13160;51.834;4.706;2023-01-20T14:46:51;17.52;;;10.63;;
25213;SDS011;13160;51.834;4.706;2023-01-20T14:52:01;17.08;;;10.35;;
25213;SDS011;13160;51.834;4.706;2023-01-20T14:54:36;15.88;;;8.85;;
25213;SDS011;13160;51.834;4.706;2023-01-20T14:57:20;17.92;;;9.82;;
25213;SDS011;13160;51.834;4.706;2023-01-20T15:00:02;17.60;;;10.80;;
25213;SDS011;13160;51.834;4.706;2023-01-20T15:02:47;17.83;;;10.60;;
25213;SDS011;13160;51.834;4.706;2023-01-20T15:05:36;18.77;;;11.63;;
25213;SDS011;13160;51.834;4.706;2023-01-20T15:08:17;20.73;;;11.45;;
25213;SDS011;13160;51.834;4.706;2023-01-20T15:11:09;18.00;;;11.10;;
25213;SDS011;13160;51.834;4.706;2023-01-20T15:16:48;18.35;;;11.35;;
25213;SDS011;13160;51.834;4.706;2023-01-20T15:19:29;19.90;;;11.75;;
25213;SDS011;13160;51.834;4.706;2023-01-20T15:22:15;18.65;;;11.02;;
25213;SDS011;13160;51.834;4.706;2023-01-20T15:24:49;19.08;;;11.35;;
25213;SDS011;13160;51.834;4.706;2023-01-20T15:27:27;17.95;;;11.30;;
25213;SDS011;13160;51.834;4.706;2023-01-20T15:30:00;19.15;;;11.13;;
25213;SDS011;13160;51.834;4.706;2023-01-20T15:32:48;20.42;;;11.60;;
25213;SDS011;13160;51.834;4.706;2023-01-20T15:35:21;19.10;;;12.13;;
25213;SDS011;13160;51.834;4.706;2023-01-20T15:37:52;18.23;;;11.32;;
25213;SDS011;13160;51.834;4.706;2023-01-20T15:40:22;24.13;;;13.93;;
25213;SDS011;13160;51.834;4.706;2023-01-20T15:42:52;24.20;;;14.70;;
25213;SDS011;13160;51.834;4.706;2023-01-20T15:45:22;25.60;;;14.23;;
25213;SDS011;13160;51.834;4.706;2023-01-20T15:47:56;30.10;;;14.82;;
25213;SDS011;13160;51.834;4.706;2023-01-20T15:50:26;24.75;;;14.07;;
25213;SDS011;13160;51.834;4.706;2023-01-20T15:52:56;26.88;;;15.73;;
25213;SDS011;13160;51.834;4.706;2023-01-20T15:55:26;24.70;;;14.88;;
25213;SDS011;13160;51.834;4.706;2023-01-20T15:57:55;28.10;;;15.68;;
25213;SDS011;13160;51.834;4.706;2023-01-20T16:00:27;26.75;;;15.35;;
25213;SDS011;13160;51.834;4.706;2023-01-20T16:02:57;32.80;;;16.83;;
25213;SDS011;13160;51.834;4.706;2023-01-20T16:05:32;30.02;;;16.63;;
25213;SDS011;13160;51.834;4.706;2023-01-20T16:08:01;27.90;;;16.58;;
25213;SDS011;13160;51.834;4.706;2023-01-20T16:10:32;27.48;;;15.65;;
25213;SDS011;13160;51.834;4.706;2023-01-20T16:13:01;29.17;;;17.40;;
25213;SDS011;13160;51.834;4.706;2023-01-20T16:15:30;29.55;;;18.05;;
25213;SDS011;13160;51.834;4.706;2023-01-20T16:18:01;27.45;;;16.75;;
25213;SDS011;13160;51.834;4.706;2023-01-20T16:20:33;31.27;;;15.77;;
25213;SDS011;13160;51.834;4.706;2023-01-20T16:23:06;30.30;;;17.80;;
25213;SDS011;13160;51.834;4.706;2023-01-20T16:25:35;31.33;;;17.67;;
25213;SDS011;13160;51.834;4.706;2023-01-20T16:28:10;36.33;;;18.02;;
25213;SDS011;13160;51.834;4.706;2023-01-20T16:30:46;33.03;;;18.63;;
25213;SDS011;13160;51.834;4.706;2023-01-20T16:33:19;32.05;;;18.40;;
25213;SDS011;13160;51.834;4.706;2023-01-20T16:35:50;30.63;;;18.55;;
25213;SDS011;13160;51.834;4.706;2023-01-20T16:38:22;30.63;;;18.25;;
25213;SDS011;13160;51.834;4.706;2023-01-20T16:40:56;36.03;;;18.63;;
25213;SDS011;13160;51.834;4.706;2023-01-20T16:43:30;36.83;;;19.42;;
25213;SDS011;13160;51.834;4.706;2023-01-20T16:45:59;35.05;;;19.33;;
25213;SDS011;13160;51.834;4.706;2023-01-20T16:48:30;32.55;;;19.83;;
25213;SDS011;13160;51.834;4.706;2023-01-20T16:50:59;32.25;;;19.10;;
25213;SDS011;13160;51.834;4.706;2023-01-20T16:53:30;33.00;;;17.95;;
25213;SDS011;13160;51.834;4.706;2023-01-20T16:55:59;32.55;;;19.02;;
25213;SDS011;13160;51.834;4.706;2023-01-20T16:58:28;29.38;;;16.83;;
25213;SDS011;13160;51.834;4.706;2023-01-20T17:00:57;36.72;;;20.25;;
25213;SDS011;13160;51.834;4.706;2023-01-20T17:03:26;36.58;;;19.90;;
25213;SDS011;13160;51.834;4.706;2023-01-20T17:05:56;31.77;;;18.40;;
25213;SDS011;13160;51.834;4.706;2023-01-20T17:08:25;35.38;;;19.50;;
25213;SDS011;13160;51.834;4.706;2023-01-20T17:10:54;39.25;;;19.48;;
25213;SDS011;13160;51.834;4.706;2023-01-20T17:13:23;37.08;;;19.27;;
25213;SDS011;13160;51.834;4.706;2023-01-20T17:15:52;39.60;;;21.70;;
25213;SDS011;13160;51.834;4.706;2023-01-20T17:18:21;36.40;;;20.38;;